createdAt,value
2023-01-30T00:00:57.520Z,-0.83
2023-01-30T00:03:24.103Z,-0.78
2023-01-30T00:05:50.480Z,-0.67
2023-01-30T00:08:16.466Z,-0.75
2023-01-30T00:10:43.882Z,-0.73
2023-01-30T00:13:10.231Z,-0.80
2023-01-30T00:15:36.625Z,-0.79
2023-01-30T00:18:02.610Z,-0.82
2023-01-30T00:20:28.546Z,-0.92
2023-01-30T00:23:00.901Z,-0.80
2023-01-30T00:25:27.684Z,-0.75
2023-01-30T00:27:53.905Z,-0.76
2023-01-30T00:30:20.153Z,-0.76
2023-01-30T00:32:46.168Z,-0.81
2023-01-30T00:35:12.032Z,-0.71
2023-01-30T00:37:37.897Z,-0.70
2023-01-30T00:40:04.305Z,-0.67
2023-01-30T00:42:48.742Z,-0.61
2023-01-30T00:45:33.302Z,-0.46
2023-01-30T00:47:59.676Z,-0.56
2023-01-30T00:50:41.564Z,-0.54
2023-01-30T00:53:12.077Z,-0.46
2023-01-30T00:55:38.551Z,-0.51
2023-01-30T00:58:04.472Z,-0.36
2023-01-30T01:00:30.975Z,-0.47
2023-01-30T01:02:56.902Z,-0.44
2023-01-30T01:05:22.931Z,-0.42
2023-01-30T01:07:48.804Z,-0.43
2023-01-30T01:10:15.958Z,-0.60
2023-01-30T01:12:43.961Z,-0.51
2023-01-30T01:15:11.652Z,-0.46
2023-01-30T01:17:38.419Z,-0.50
2023-01-30T01:20:05.276Z,-0.46
2023-01-30T01:22:31.156Z,-0.45
2023-01-30T01:24:56.971Z,-0.39
2023-01-30T01:27:22.920Z,-0.42
2023-01-30T01:29:48.744Z,-0.39
2023-01-30T01:32:14.598Z,-0.34
2023-01-30T01:34:40.857Z,-0.30
2023-01-30T01:37:07.082Z,-0.27
2023-01-30T01:39:51.415Z,-0.34
2023-01-30T01:42:17.664Z,-0.34
2023-01-30T01:45:08.339Z,-0.35
2023-01-30T01:47:34.651Z,-0.33
2023-01-30T01:50:01.559Z,-0.36
2023-01-30T01:52:28.500Z,-0.34
2023-01-30T01:55:02.348Z,-0.24
2023-01-30T01:57:34.519Z,-0.21
2023-01-30T02:00:12.194Z,-0.16
2023-01-30T02:02:41.313Z,-0.06
2023-01-30T02:05:10.461Z,-0.10
2023-01-30T02:07:46.174Z,0.06
2023-01-30T02:10:17.169Z,-0.04
2023-01-30T02:12:43.328Z,-0.08
2023-01-30T02:15:09.549Z,-0.22
2023-01-30T02:17:35.375Z,0.00
2023-01-30T02:20:15.729Z,0.16
2023-01-30T02:23:15.610Z,0.04
2023-01-30T02:26:23.459Z,0.11
2023-01-30T02:29:07.908Z,0.11
2023-01-30T02:31:49.365Z,0.15
2023-01-30T02:34:52.458Z,0.20
2023-01-30T02:37:21.379Z,0.16
2023-01-30T02:40:10.597Z,0.14
2023-01-30T02:42:50.862Z,0.15
2023-01-30T02:45:47.279Z,0.19
2023-01-30T02:48:16.524Z,0.17
2023-01-30T02:50:50.414Z,0.24
2023-01-30T02:53:16.678Z,0.30
2023-01-30T02:55:42.578Z,0.35
2023-01-30T02:58:09.860Z,0.47
2023-01-30T03:00:47.580Z,0.32
2023-01-30T03:04:03.103Z,0.37
2023-01-30T03:06:56.593Z,0.40
2023-01-30T03:09:35.089Z,0.52
2023-01-30T03:12:14.104Z,0.46
2023-01-30T03:14:55.465Z,0.53
2023-01-30T03:17:26.163Z,0.48
2023-01-30T03:19:53.614Z,0.54
2023-01-30T03:22:20.957Z,0.52
2023-01-30T03:24:48.743Z,0.55
2023-01-30T03:27:14.664Z,0.53
2023-01-30T03:29:40.492Z,0.54
2023-01-30T03:32:06.577Z,0.63
2023-01-30T03:34:32.651Z,0.66
2023-01-30T03:36:58.637Z,0.69
2023-01-30T03:39:25.019Z,0.65
2023-01-30T03:41:52.863Z,0.63
2023-01-30T03:44:19.256Z,0.62
2023-01-30T03:46:45.120Z,0.74
2023-01-30T03:49:10.975Z,0.63
2023-01-30T03:51:36.991Z,0.69
2023-01-30T03:54:03.260Z,0.75
2023-01-30T03:56:30.282Z,0.78
2023-01-30T03:58:56.343Z,0.77
2023-01-30T04:01:22.418Z,0.76
2023-01-30T04:03:48.309Z,0.75
2023-01-30T04:06:14.503Z,0.78
2023-01-30T04:08:40.392Z,0.91
2023-01-30T04:11:06.323Z,0.86
2023-01-30T04:13:32.143Z,0.87
2023-01-30T04:16:17.118Z,0.85
2023-01-30T04:18:42.955Z,0.83
2023-01-30T04:21:08.881Z,0.73
2023-01-30T04:23:34.684Z,0.77
2023-01-30T04:26:00.537Z,0.83
2023-01-30T04:28:26.555Z,0.79
2023-01-30T04:30:53.421Z,0.80
2023-01-30T04:33:19.275Z,0.82
2023-01-30T04:35:56.410Z,0.77
2023-01-30T04:38:22.627Z,0.73
2023-01-30T04:40:53.393Z,0.87
2023-01-30T04:43:21.337Z,0.80
2023-01-30T04:45:48.552Z,0.81
2023-01-30T04:48:15.599Z,0.91
2023-01-30T04:50:43.325Z,1.00
2023-01-30T04:53:09.728Z,0.87
2023-01-30T04:55:36.311Z,0.95
2023-01-30T04:58:02.802Z,0.97
2023-01-30T05:00:28.919Z,0.90
2023-01-30T05:02:57.593Z,0.97
2023-01-30T05:05:23.937Z,0.95
2023-01-30T05:07:49.932Z,1.01
2023-01-30T05:10:16.240Z,1.05
2023-01-30T05:12:42.232Z,1.04
2023-01-30T05:15:08.893Z,1.13
2023-01-30T05:17:34.748Z,1.05
2023-01-30T05:20:00.593Z,1.04
2023-01-30T05:22:26.430Z,1.17
2023-01-30T05:24:52.331Z,1.14
2023-01-30T05:27:18.223Z,1.10
2023-01-30T05:29:44.143Z,1.11
2023-01-30T05:32:12.307Z,1.16
2023-01-30T05:34:38.098Z,1.11
2023-01-30T05:37:03.923Z,1.05
2023-01-30T05:39:29.684Z,1.10
2023-01-30T05:41:55.556Z,1.18
2023-01-30T05:44:21.369Z,1.31
2023-01-30T05:46:47.239Z,1.27
2023-01-30T05:49:13.124Z,1.14
2023-01-30T05:51:39.118Z,1.20
2023-01-30T05:54:05.138Z,1.19
2023-01-30T05:56:32.624Z,1.26
2023-01-30T05:59:00.314Z,1.29
2023-01-30T06:01:27.386Z,1.20
2023-01-30T06:03:53.548Z,1.21
2023-01-30T06:06:20.086Z,1.34
2023-01-30T06:08:46.560Z,1.28
2023-01-30T06:11:16.518Z,1.27
2023-01-30T06:13:43.235Z,1.31
2023-01-30T06:16:11.294Z,1.38
2023-01-30T06:18:37.804Z,1.41
2023-01-30T06:21:04.354Z,1.45
2023-01-30T06:23:30.537Z,1.43
2023-01-30T06:25:56.599Z,1.48
2023-01-30T06:28:24.033Z,1.52
2023-01-30T06:30:50.345Z,1.52
2023-01-30T06:33:16.663Z,1.56
2023-01-30T06:35:43.896Z,1.52
2023-01-30T06:38:11.007Z,1.59
2023-01-30T06:40:37.694Z,1.61
2023-01-30T06:43:04.013Z,1.62
2023-01-30T06:45:30.111Z,1.60
2023-01-30T06:47:56.258Z,1.56
2023-01-30T06:50:24.878Z,1.72
2023-01-30T06:52:52.205Z,1.70
2023-01-30T06:55:20.905Z,1.69
2023-01-30T06:57:47.533Z,1.70
2023-01-30T07:00:18.294Z,1.76
2023-01-30T07:02:45.132Z,1.82
2023-01-30T07:05:11.641Z,1.76
2023-01-30T07:07:38.142Z,1.75
2023-01-30T07:10:10.937Z,1.73
2023-01-30T07:12:37.195Z,1.80
2023-01-30T07:15:04.650Z,1.84
2023-01-30T07:17:30.484Z,1.88
2023-01-30T07:19:56.372Z,1.92
2023-01-30T07:22:22.205Z,2.01
2023-01-30T07:24:48.039Z,1.96
2023-01-30T07:27:14.131Z,1.93
2023-01-30T07:29:40.252Z,1.95
2023-01-30T07:32:07.249Z,1.98
2023-01-30T07:34:33.217Z,2.07
2023-01-30T07:36:59.195Z,2.04
2023-01-30T07:39:25.128Z,2.12
2023-01-30T07:41:50.947Z,2.01
2023-01-30T07:44:16.758Z,2.04
2023-01-30T07:46:42.590Z,2.07
2023-01-30T07:49:09.612Z,2.13
2023-01-30T07:51:35.478Z,2.15
2023-01-30T07:54:03.252Z,2.14
2023-01-30T07:56:29.968Z,2.22
2023-01-30T07:58:56.191Z,2.15
2023-01-30T08:01:22.600Z,2.19
2023-01-30T08:03:49.500Z,2.32
2023-01-30T08:06:16.196Z,2.26
2023-01-30T08:08:42.414Z,2.29
2023-01-30T08:11:08.330Z,2.30
2023-01-30T08:13:34.156Z,2.25
2023-01-30T08:16:01.105Z,2.27
2023-01-30T08:18:31.535Z,2.28
2023-01-30T08:21:01.985Z,2.31
2023-01-30T08:23:28.027Z,2.37
2023-01-30T08:25:55.604Z,2.48
2023-01-30T08:28:21.453Z,2.55
2023-01-30T08:30:48.471Z,2.40
2023-01-30T08:33:15.187Z,2.33
2023-01-30T08:35:41.434Z,2.36
2023-01-30T08:38:08.385Z,2.42
2023-01-30T08:40:35.518Z,2.37
2023-01-30T08:43:01.533Z,2.27
2023-01-30T08:45:27.992Z,2.36
2023-01-30T08:47:58.143Z,2.33
2023-01-30T08:50:24.060Z,2.32
2023-01-30T08:52:50.020Z,2.46
2023-01-30T08:55:16.084Z,2.44
2023-01-30T08:57:41.911Z,2.42
2023-01-30T09:00:08.563Z,2.43
2023-01-30T09:02:34.561Z,2.58
2023-01-30T09:05:00.516Z,2.46
2023-01-30T09:07:28.126Z,2.54
2023-01-30T09:09:54.433Z,2.53
2023-01-30T09:12:20.846Z,2.68
2023-01-30T09:14:46.878Z,2.61
2023-01-30T09:17:13.097Z,2.51
2023-01-30T09:19:38.988Z,2.46
2023-01-30T09:22:06.939Z,2.51
2023-01-30T09:24:33.237Z,2.65
2023-01-30T09:26:59.322Z,2.57
2023-01-30T09:29:26.482Z,2.47
2023-01-30T09:31:53.151Z,2.48
2023-01-30T09:34:19.404Z,2.48
2023-01-30T09:36:45.312Z,2.39
2023-01-30T09:39:11.142Z,2.37
2023-01-30T09:42:04.751Z,2.47
2023-01-30T09:45:01.907Z,2.46
2023-01-30T09:47:43.672Z,2.37
2023-01-30T09:50:33.672Z,2.37
2023-01-30T09:53:39.455Z,2.42
2023-01-30T09:56:05.308Z,2.34
2023-01-30T09:59:01.100Z,2.45
2023-01-30T10:01:39.875Z,2.50
2023-01-30T10:04:33.605Z,2.52
2023-01-30T10:07:19.559Z,2.52
2023-01-30T10:09:54.697Z,2.58
2023-01-30T10:12:50.866Z,2.66
2023-01-30T10:15:34.573Z,2.44
2023-01-30T10:18:22.011Z,2.40
2023-01-30T10:21:26.287Z,2.39
2023-01-30T10:24:07.187Z,2.57
2023-01-30T10:26:33.431Z,2.50
2023-01-30T10:29:13.368Z,2.63
2023-01-30T10:31:55.635Z,2.82
2023-01-30T10:34:41.196Z,2.78
2023-01-30T10:37:47.505Z,2.75
2023-01-30T10:40:41.465Z,2.67
2023-01-30T10:43:20.518Z,2.64
2023-01-30T10:46:06.595Z,2.50
2023-01-30T10:48:51.058Z,2.38
2023-01-30T10:51:31.560Z,2.36
2023-01-30T10:54:04.495Z,2.55
2023-01-30T10:56:40.433Z,2.43
2023-01-30T10:59:21.838Z,2.35
2023-01-30T11:01:55.989Z,2.40
2023-01-30T11:04:41.867Z,2.38
2023-01-30T11:07:08.448Z,2.43
2023-01-30T11:09:43.013Z,2.40
2023-01-30T11:12:08.939Z,2.37
2023-01-30T11:14:51.824Z,2.43
2023-01-30T11:17:19.580Z,2.48
2023-01-30T11:19:53.714Z,2.35
2023-01-30T11:22:19.833Z,2.40
2023-01-30T11:24:45.903Z,2.55
2023-01-30T11:27:20.792Z,2.56
2023-01-30T11:29:47.669Z,2.61
2023-01-30T11:32:26.264Z,2.43
2023-01-30T11:35:07.475Z,2.64
2023-01-30T11:37:36.948Z,2.59
2023-01-30T11:40:20.639Z,2.58
2023-01-30T11:42:49.321Z,2.61
2023-01-30T11:45:18.518Z,2.52
2023-01-30T11:47:57.676Z,2.51
2023-01-30T11:50:33.358Z,2.48
2023-01-30T11:53:04.521Z,2.49
2023-01-30T11:55:39.657Z,2.54
2023-01-30T11:58:08.692Z,2.58
2023-01-30T12:00:45.688Z,2.63
2023-01-30T12:03:15.511Z,2.48
2023-01-30T12:05:45.060Z,2.58
2023-01-30T12:08:42.334Z,2.63
2023-01-30T12:11:44.370Z,2.82
2023-01-30T12:14:37.043Z,2.86
2023-01-30T12:17:20.679Z,2.89
2023-01-30T12:20:12.212Z,2.98
2023-01-30T12:22:45.992Z,2.79
2023-01-30T12:25:39.387Z,2.86
2023-01-30T12:28:32.841Z,2.99
2023-01-30T12:31:26.451Z,3.03
2023-01-30T12:33:54.683Z,2.83
2023-01-30T12:36:36.207Z,2.68
2023-01-30T12:39:05.302Z,2.48
2023-01-30T12:41:55.779Z,2.12
2023-01-30T12:44:26.972Z,1.85
2023-01-30T12:47:23.520Z,1.96
2023-01-30T12:49:55.216Z,1.95
2023-01-30T12:52:39.447Z,2.00
2023-01-30T12:55:44.370Z,2.60
2023-01-30T12:58:14.751Z,2.74
2023-01-30T13:01:21.566Z,2.85
2023-01-30T13:04:01.255Z,2.62
2023-01-30T13:06:57.285Z,2.75
2023-01-30T13:09:29.292Z,2.62
2023-01-30T13:12:10.391Z,2.59
2023-01-30T13:14:58.358Z,2.66
2023-01-30T13:17:39.331Z,3.07
2023-01-30T13:20:23.344Z,3.10
2023-01-30T13:23:03.731Z,3.19
2023-01-30T13:25:42.214Z,2.89
2023-01-30T13:28:20.437Z,3.12
2023-01-30T13:30:50.843Z,3.22
2023-01-30T13:33:33.014Z,3.13
2023-01-30T13:36:06.449Z,3.02
2023-01-30T13:38:35.599Z,3.07
2023-01-30T13:41:03.057Z,3.01
2023-01-30T13:43:35.799Z,2.89
2023-01-30T13:46:09.491Z,2.97
2023-01-30T13:48:54.856Z,2.99
2023-01-30T13:51:36.100Z,2.96
2023-01-30T13:54:38.923Z,2.96
2023-01-30T13:57:24.947Z,2.94
2023-01-30T13:59:53.726Z,2.97
2023-01-30T14:02:24.212Z,3.08
2023-01-30T14:04:59.999Z,3.01
2023-01-30T14:07:29.312Z,3.02
2023-01-30T14:10:10.955Z,3.03
2023-01-30T14:12:45.158Z,3.04
2023-01-30T14:15:18.392Z,3.08
2023-01-30T14:18:18.987Z,3.03
2023-01-30T14:20:47.095Z,2.96
2023-01-30T14:23:18.679Z,3.03
2023-01-30T14:25:49.994Z,3.19
2023-01-30T14:28:16.052Z,3.19
2023-01-30T14:30:44.991Z,3.24
2023-01-30T14:33:19.968Z,3.31
2023-01-30T14:36:29.076Z,3.25
2023-01-30T14:39:16.573Z,3.18
2023-01-30T14:41:42.438Z,3.22
2023-01-30T14:44:08.299Z,3.17
2023-01-30T14:46:58.142Z,3.08
2023-01-30T14:49:27.514Z,3.16
2023-01-30T14:51:55.423Z,3.14
2023-01-30T14:54:33.250Z,3.12
2023-01-30T14:57:26.903Z,3.02
2023-01-30T15:00:14.889Z,3.00
2023-01-30T15:02:48.708Z,3.07
2023-01-30T15:05:26.470Z,3.19
2023-01-30T15:08:13.990Z,3.15
2023-01-30T15:11:14.153Z,3.14
2023-01-30T15:14:07.019Z,3.12
2023-01-30T15:16:36.027Z,3.08
2023-01-30T15:19:52.114Z,3.01
2023-01-30T15:22:26.940Z,3.04
2023-01-30T15:25:18.523Z,3.16
2023-01-30T15:28:02.826Z,3.12
2023-01-30T15:30:56.402Z,3.04
2023-01-30T15:33:31.093Z,3.03
2023-01-30T15:35:57.988Z,3.07
2023-01-30T15:38:32.395Z,3.10
2023-01-30T15:41:04.324Z,3.02
2023-01-30T15:43:33.060Z,3.02
2023-01-30T15:46:15.579Z,2.95
2023-01-30T15:49:14.219Z,2.90
2023-01-30T15:51:40.277Z,3.00
2023-01-30T15:54:10.812Z,2.97
2023-01-30T15:56:38.979Z,2.90
2023-01-30T15:59:06.373Z,2.85
2023-01-30T16:01:32.549Z,2.83
2023-01-30T16:03:59.689Z,2.86
2023-01-30T16:06:30.266Z,2.70
2023-01-30T16:09:17.903Z,2.69
2023-01-30T16:11:43.896Z,2.60
2023-01-30T16:14:18.863Z,2.67
2023-01-30T16:16:51.073Z,2.63
2023-01-30T16:19:30.210Z,2.69
2023-01-30T16:22:00.931Z,2.61
2023-01-30T16:24:31.209Z,2.65
2023-01-30T16:27:01.758Z,2.70
2023-01-30T16:29:31.334Z,2.73
2023-01-30T16:31:57.696Z,2.74
2023-01-30T16:34:36.508Z,2.82
2023-01-30T16:37:20.295Z,2.71
2023-01-30T16:40:13.091Z,2.87
2023-01-30T16:42:39.551Z,2.89
2023-01-30T16:45:15.421Z,2.72
2023-01-30T16:47:41.591Z,2.76
2023-01-30T16:50:20.528Z,2.81
2023-01-30T16:52:52.272Z,2.82
2023-01-30T16:55:24.201Z,2.82
2023-01-30T16:57:54.032Z,2.91
2023-01-30T17:00:38.173Z,2.84
2023-01-30T17:03:25.595Z,2.87
2023-01-30T17:05:52.013Z,2.83
2023-01-30T17:08:59.094Z,2.92
2023-01-30T17:11:40.756Z,2.88
2023-01-30T17:14:29.996Z,2.87
2023-01-30T17:17:03.590Z,2.88
2023-01-30T17:19:29.782Z,2.90
2023-01-30T17:21:58.069Z,2.96
2023-01-30T17:24:24.906Z,2.83
2023-01-30T17:26:53.938Z,2.80
2023-01-30T17:29:41.026Z,2.87
2023-01-30T17:32:10.947Z,2.92
2023-01-30T17:34:40.318Z,2.85
2023-01-30T17:37:19.566Z,2.74
2023-01-30T17:39:46.170Z,2.80
2023-01-30T17:42:13.311Z,2.78
2023-01-30T17:44:40.014Z,2.69
2023-01-30T17:47:06.283Z,2.65
2023-01-30T17:49:32.535Z,2.67
2023-01-30T17:52:01.182Z,2.73
2023-01-30T17:54:29.295Z,2.71
2023-01-30T17:57:00.104Z,2.85
2023-01-30T17:59:26.191Z,2.87
2023-01-30T18:01:53.199Z,2.81
2023-01-30T18:04:19.803Z,2.83
2023-01-30T18:06:49.774Z,2.86
2023-01-30T18:09:21.024Z,2.78
2023-01-30T18:11:47.716Z,2.76
2023-01-30T18:14:13.989Z,2.88
2023-01-30T18:16:40.320Z,2.77
2023-01-30T18:19:10.824Z,2.87
2023-01-30T18:21:39.354Z,2.90
2023-01-30T18:24:06.728Z,2.83
2023-01-30T18:26:33.012Z,2.82
2023-01-30T18:28:59.169Z,2.76
2023-01-30T18:31:28.797Z,2.79
2023-01-30T18:33:55.103Z,2.81
2023-01-30T18:36:21.875Z,2.81
2023-01-30T18:38:48.317Z,2.83
2023-01-30T18:41:20.059Z,2.76
2023-01-30T18:43:47.828Z,2.83
2023-01-30T18:46:17.171Z,2.74
2023-01-30T18:48:44.990Z,2.74
2023-01-30T18:51:20.279Z,2.67
2023-01-30T18:53:48.538Z,2.72
2023-01-30T18:56:26.249Z,2.70
2023-01-30T18:58:54.318Z,2.74
2023-01-30T19:01:23.817Z,2.73
2023-01-30T19:03:54.043Z,2.68
2023-01-30T19:06:20.318Z,2.80
2023-01-30T19:08:46.538Z,2.82
2023-01-30T19:11:34.071Z,2.70
2023-01-30T19:14:01.038Z,2.75
2023-01-30T19:16:29.780Z,2.76
2023-01-30T19:18:56.451Z,2.78
2023-01-30T19:21:23.856Z,2.74
2023-01-30T19:23:50.569Z,2.67
2023-01-30T19:26:18.237Z,2.68
2023-01-30T19:28:44.925Z,2.66
2023-01-30T19:31:14.035Z,2.63
2023-01-30T19:33:44.334Z,2.70
2023-01-30T19:36:15.956Z,2.82
2023-01-30T19:38:43.751Z,2.66
2023-01-30T19:41:11.455Z,2.64
2023-01-30T19:43:38.297Z,2.60
2023-01-30T19:46:05.741Z,2.73
2023-01-30T19:48:32.506Z,2.67
2023-01-30T19:51:04.755Z,2.60
2023-01-30T19:53:32.946Z,2.63
2023-01-30T19:55:59.139Z,2.67
2023-01-30T19:58:25.368Z,2.54
2023-01-30T20:00:51.710Z,2.69
2023-01-30T20:03:17.783Z,2.63
2023-01-30T20:05:44.706Z,2.62
2023-01-30T20:08:25.611Z,2.62
2023-01-30T20:11:18.282Z,2.62
2023-01-30T20:13:45.676Z,2.67
2023-01-30T20:16:15.251Z,2.66
2023-01-30T20:18:41.508Z,2.54
2023-01-30T20:21:09.694Z,2.63
2023-01-30T20:23:36.411Z,2.63
2023-01-30T20:26:07.285Z,2.53
2023-01-30T20:28:33.975Z,2.55
2023-01-30T20:31:00.464Z,2.55
2023-01-30T20:33:28.669Z,2.49
2023-01-30T20:36:00.497Z,2.51
2023-01-30T20:38:30.207Z,2.47
2023-01-30T20:41:06.580Z,2.53
2023-01-30T20:43:33.636Z,2.49
2023-01-30T20:46:07.968Z,2.55
2023-01-30T20:48:35.175Z,2.41
2023-01-30T20:51:03.103Z,2.38
2023-01-30T20:53:29.626Z,2.37
2023-01-30T20:55:59.717Z,2.42
2023-01-30T20:58:27.525Z,2.56
2023-01-30T21:00:54.185Z,2.46
2023-01-30T21:03:23.675Z,2.34
2023-01-30T21:05:59.847Z,2.51
2023-01-30T21:08:26.950Z,2.38
2023-01-30T21:10:54.671Z,2.30
2023-01-30T21:13:21.156Z,2.32
2023-01-30T21:15:48.169Z,2.35
2023-01-30T21:18:14.272Z,2.49
2023-01-30T21:20:47.016Z,2.32
2023-01-30T21:23:14.060Z,2.29
2023-01-30T21:25:40.219Z,2.34
2023-01-30T21:28:06.353Z,2.31
2023-01-30T21:30:35.160Z,2.27
2023-01-30T21:33:01.257Z,2.30
2023-01-30T21:35:27.346Z,2.30
2023-01-30T21:38:12.015Z,2.30
2023-01-30T21:40:56.738Z,2.28
2023-01-30T21:43:22.993Z,2.17
2023-01-30T21:45:49.164Z,2.25
2023-01-30T21:48:15.283Z,2.26
2023-01-30T21:50:41.266Z,2.20
2023-01-30T21:53:07.245Z,2.14
2023-01-30T21:55:33.491Z,2.23
2023-01-30T21:57:59.536Z,2.24
2023-01-30T22:00:25.698Z,2.29
2023-01-30T22:02:51.608Z,2.30
2023-01-30T22:05:17.983Z,2.25
2023-01-30T22:07:44.053Z,2.25
2023-01-30T22:10:10.470Z,2.23
2023-01-30T22:12:39.867Z,2.15
2023-01-30T22:15:07.694Z,2.18
2023-01-30T22:17:33.813Z,2.23
2023-01-30T22:19:59.901Z,2.16
2023-01-30T22:22:26.244Z,2.26
2023-01-30T22:24:52.411Z,2.29
2023-01-30T22:27:18.312Z,2.37
2023-01-30T22:29:44.150Z,2.34
2023-01-30T22:32:10.208Z,2.33
2023-01-30T22:34:36.735Z,2.25
2023-01-30T22:37:02.676Z,2.24
2023-01-30T22:39:28.566Z,2.24
2023-01-30T22:41:54.997Z,2.29
2023-01-30T22:44:21.625Z,2.42
2023-01-30T22:46:50.802Z,2.15
2023-01-30T22:49:16.652Z,2.17
2023-01-30T22:51:43.003Z,2.19
2023-01-30T22:54:15.103Z,2.17
2023-01-30T22:56:43.482Z,2.10
2023-01-30T22:59:09.934Z,2.08
2023-01-30T23:01:46.890Z,2.10
2023-01-30T23:04:21.373Z,2.11
2023-01-30T23:06:48.256Z,2.11
2023-01-30T23:09:17.233Z,2.13
2023-01-30T23:12:08.519Z,2.16
2023-01-30T23:14:35.731Z,2.13
2023-01-30T23:17:25.284Z,2.10
2023-01-30T23:19:51.936Z,2.00
2023-01-30T23:22:18.093Z,2.03
2023-01-30T23:24:44.032Z,2.02
2023-01-30T23:27:09.840Z,2.10
2023-01-30T23:29:36.528Z,2.06
2023-01-30T23:32:02.594Z,2.11
2023-01-30T23:34:28.556Z,2.05
2023-01-30T23:36:54.396Z,2.11
2023-01-30T23:39:20.223Z,1.97
2023-01-30T23:41:46.048Z,1.96
2023-01-30T23:44:11.909Z,2.01
2023-01-30T23:46:41.634Z,1.98
2023-01-30T23:49:13.544Z,1.99
2023-01-30T23:51:41.694Z,2.06
2023-01-30T23:54:08.838Z,2.00
2023-01-30T23:56:37.553Z,2.14
2023-01-30T23:59:04.681Z,2.15
